sensor_id;sensor_type;location;lat;lon;timestamp;P1;durP1;ratioP1;P2;durP2;ratioP2
66425;SDS011;53237;46.158;14.604;2024-02-21T00:01:50;15.75;;;8.68;;
66425;SDS011;53237;46.158;14.604;2024-02-21T00:04:16;14.30;;;8.55;;
66425;SDS011;53237;46.158;14.604;2024-02-21T00:06:42;17.95;;;9.18;;
66425;SDS011;53237;46.158;14.604;2024-02-21T00:09:08;13.77;;;8.88;;
66425;SDS011;53237;46.158;14.604;2024-02-21T00:11:34;15.48;;;8.32;;
66425;SDS011;53237;46.158;14.604;2024-02-21T00:14:00;14.90;;;9.50;;
66425;SDS011;53237;46.158;14.604;2024-02-21T00:16:33;15.50;;;8.95;;
66425;SDS011;53237;46.158;14.604;2024-02-21T00:21:24;17.38;;;9.27;;
66425;SDS011;53237;46.158;14.604;2024-02-21T00:23:50;12.52;;;8.05;;
66425;SDS011;53237;46.158;14.604;2024-02-21T00:26:19;13.73;;;8.75;;
66425;SDS011;53237;46.158;14.604;2024-02-21T00:28:45;14.88;;;8.20;;
66425;SDS011;53237;46.158;14.604;2024-02-21T00:31:11;13.93;;;8.85;;
66425;SDS011;53237;46.158;14.604;2024-02-21T00:33:37;14.70;;;8.73;;
66425;SDS011;53237;46.158;14.604;2024-02-21T00:36:03;15.60;;;9.15;;
66425;SDS011;53237;46.158;14.604;2024-02-21T00:38:29;14.32;;;8.20;;
66425;SDS011;53237;46.158;14.604;2024-02-21T00:40:55;12.38;;;7.75;;
66425;SDS011;53237;46.158;14.604;2024-02-21T00:43:21;13.43;;;7.90;;
66425;SDS011;53237;46.158;14.604;2024-02-21T00:45:49;13.15;;;7.75;;
66425;SDS011;53237;46.158;14.604;2024-02-21T00:48:15;13.35;;;8.23;;
66425;SDS011;53237;46.158;14.604;2024-02-21T00:50:41;13.02;;;8.20;;
66425;SDS011;53237;46.158;14.604;2024-02-21T00:53:07;12.80;;;8.25;;
66425;SDS011;53237;46.158;14.604;2024-02-21T00:55:33;16.20;;;8.52;;
66425;SDS011;53237;46.158;14.604;2024-02-21T00:57:59;15.00;;;8.38;;
66425;SDS011;53237;46.158;14.604;2024-02-21T01:00:25;12.50;;;8.20;;
66425;SDS011;53237;46.158;14.604;2024-02-21T01:02:51;11.95;;;7.38;;
66425;SDS011;53237;46.158;14.604;2024-02-21T01:05:18;13.63;;;7.95;;
66425;SDS011;53237;46.158;14.604;2024-02-21T01:07:45;12.15;;;7.82;;
66425;SDS011;53237;46.158;14.604;2024-02-21T01:10:13;13.82;;;6.95;;
66425;SDS011;53237;46.158;14.604;2024-02-21T01:12:39;13.95;;;7.78;;
66425;SDS011;53237;46.158;14.604;2024-02-21T01:15:05;12.43;;;7.47;;
66425;SDS011;53237;46.158;14.604;2024-02-21T01:17:31;11.60;;;7.40;;
66425;SDS011;53237;46.158;14.604;2024-02-21T01:19:58;13.15;;;7.28;;
66425;SDS011;53237;46.158;14.604;2024-02-21T01:22:24;12.25;;;7.13;;
66425;SDS011;53237;46.158;14.604;2024-02-21T01:24:50;13.40;;;8.05;;
66425;SDS011;53237;46.158;14.604;2024-02-21T01:27:16;11.02;;;7.15;;
66425;SDS011;53237;46.158;14.604;2024-02-21T01:29:42;11.23;;;6.63;;
66425;SDS011;53237;46.158;14.604;2024-02-21T01:32:08;10.30;;;6.95;;
66425;SDS011;53237;46.158;14.604;2024-02-21T01:34:34;11.35;;;6.10;;
66425;SDS011;53237;46.158;14.604;2024-02-21T01:37:00;10.27;;;6.35;;
66425;SDS011;53237;46.158;14.604;2024-02-21T01:39:29;9.45;;;5.93;;
66425;SDS011;53237;46.158;14.604;2024-02-21T01:41:55;12.73;;;7.28;;
66425;SDS011;53237;46.158;14.604;2024-02-21T01:44:21;12.23;;;5.90;;
66425;SDS011;53237;46.158;14.604;2024-02-21T01:46:47;7.90;;;6.50;;
66425;SDS011;53237;46.158;14.604;2024-02-21T01:49:13;10.85;;;6.38;;
66425;SDS011;53237;46.158;14.604;2024-02-21T01:51:39;9.48;;;6.00;;
66425;SDS011;53237;46.158;14.604;2024-02-21T01:54:05;9.35;;;5.70;;
66425;SDS011;53237;46.158;14.604;2024-02-21T01:56:31;8.95;;;5.53;;
66425;SDS011;53237;46.158;14.604;2024-02-21T01:58:58;10.48;;;6.07;;
66425;SDS011;53237;46.158;14.604;2024-02-21T02:01:24;10.02;;;6.47;;
66425;SDS011;53237;46.158;14.604;2024-02-21T02:03:50;7.68;;;5.35;;
66425;SDS011;53237;46.158;14.604;2024-02-21T02:06:17;10.93;;;6.57;;
66425;SDS011;53237;46.158;14.604;2024-02-21T02:08:43;8.32;;;5.55;;
66425;SDS011;53237;46.158;14.604;2024-02-21T02:11:10;9.18;;;5.68;;
66425;SDS011;53237;46.158;14.604;2024-02-21T02:13:36;9.93;;;5.38;;
66425;SDS011;53237;46.158;14.604;2024-02-21T02:16:02;9.27;;;5.35;;
66425;SDS011;53237;46.158;14.604;2024-02-21T02:18:28;10.43;;;5.90;;
66425;SDS011;53237;46.158;14.604;2024-02-21T02:20:54;8.20;;;5.72;;
66425;SDS011;53237;46.158;14.604;2024-02-21T02:23:31;8.20;;;5.20;;
66425;SDS011;53237;46.158;14.604;2024-02-21T02:25:57;12.25;;;6.10;;
66425;SDS011;53237;46.158;14.604;2024-02-21T02:28:24;9.25;;;5.00;;
66425;SDS011;53237;46.158;14.604;2024-02-21T02:30:50;10.63;;;5.10;;
66425;SDS011;53237;46.158;14.604;2024-02-21T02:33:16;6.72;;;4.97;;
66425;SDS011;53237;46.158;14.604;2024-02-21T02:35:42;9.57;;;5.70;;
66425;SDS011;53237;46.158;14.604;2024-02-21T02:38:08;9.10;;;5.55;;
66425;SDS011;53237;46.158;14.604;2024-02-21T02:40:37;7.47;;;5.53;;
66425;SDS011;53237;46.158;14.604;2024-02-21T02:43:04;7.00;;;4.68;;
66425;SDS011;53237;46.158;14.604;2024-02-21T02:45:30;8.73;;;5.35;;
66425;SDS011;53237;46.158;14.604;2024-02-21T02:47:56;8.13;;;4.95;;
66425;SDS011;53237;46.158;14.604;2024-02-21T02:50:26;7.82;;;4.50;;
66425;SDS011;53237;46.158;14.604;2024-02-21T02:52:52;8.25;;;4.75;;
66425;SDS011;53237;46.158;14.604;2024-02-21T02:55:19;6.97;;;4.78;;
66425;SDS011;53237;46.158;14.604;2024-02-21T02:57:45;7.47;;;4.53;;
66425;SDS011;53237;46.158;14.604;2024-02-21T03:00:11;7.38;;;4.50;;
66425;SDS011;53237;46.158;14.604;2024-02-21T03:02:38;12.07;;;5.13;;
66425;SDS011;53237;46.158;14.604;2024-02-21T03:05:11;5.93;;;3.92;;
66425;SDS011;53237;46.158;14.604;2024-02-21T03:07:37;6.88;;;4.05;;
66425;SDS011;53237;46.158;14.604;2024-02-21T03:10:03;8.15;;;4.70;;
66425;SDS011;53237;46.158;14.604;2024-02-21T03:12:29;7.60;;;5.18;;
66425;SDS011;53237;46.158;14.604;2024-02-21T03:14:55;7.57;;;4.75;;
66425;SDS011;53237;46.158;14.604;2024-02-21T03:17:21;8.57;;;4.82;;
66425;SDS011;53237;46.158;14.604;2024-02-21T03:19:48;7.68;;;4.97;;
66425;SDS011;53237;46.158;14.604;2024-02-21T03:22:15;8.20;;;4.55;;
66425;SDS011;53237;46.158;14.604;2024-02-21T03:24:41;9.32;;;4.45;;
66425;SDS011;53237;46.158;14.604;2024-02-21T03:27:07;8.57;;;4.10;;
66425;SDS011;53237;46.158;14.604;2024-02-21T03:29:33;6.40;;;3.92;;
66425;SDS011;53237;46.158;14.604;2024-02-21T03:31:59;8.18;;;3.95;;
66425;SDS011;53237;46.158;14.604;2024-02-21T03:34:25;5.32;;;3.72;;
66425;SDS011;53237;46.158;14.604;2024-02-21T03:36:51;6.70;;;4.10;;
66425;SDS011;53237;46.158;14.604;2024-02-21T03:39:17;7.55;;;4.88;;
66425;SDS011;53237;46.158;14.604;2024-02-21T03:41:43;7.18;;;4.03;;
66425;SDS011;53237;46.158;14.604;2024-02-21T03:44:12;5.38;;;3.65;;
66425;SDS011;53237;46.158;14.604;2024-02-21T03:46:38;5.47;;;3.38;;
66425;SDS011;53237;46.158;14.604;2024-02-21T03:49:05;6.43;;;3.80;;
66425;SDS011;53237;46.158;14.604;2024-02-21T03:51:31;8.18;;;4.20;;
66425;SDS011;53237;46.158;14.604;2024-02-21T03:53:57;5.93;;;4.00;;
66425;SDS011;53237;46.158;14.604;2024-02-21T03:56:23;5.93;;;3.75;;
66425;SDS011;53237;46.158;14.604;2024-02-21T03:58:49;5.93;;;3.40;;
66425;SDS011;53237;46.158;14.604;2024-02-21T04:01:16;5.93;;;3.35;;
66425;SDS011;53237;46.158;14.604;2024-02-21T04:03:43;5.55;;;3.42;;
66425;SDS011;53237;46.158;14.604;2024-02-21T04:06:09;6.10;;;3.38;;
66425;SDS011;53237;46.158;14.604;2024-02-21T04:08:35;5.70;;;3.35;;
66425;SDS011;53237;46.158;14.604;2024-02-21T04:11:01;5.60;;;3.45;;
66425;SDS011;53237;46.158;14.604;2024-02-21T04:13:27;5.43;;;3.28;;
66425;SDS011;53237;46.158;14.604;2024-02-21T04:15:54;4.78;;;3.20;;
66425;SDS011;53237;46.158;14.604;2024-02-21T04:18:20;5.47;;;3.47;;
66425;SDS011;53237;46.158;14.604;2024-02-21T04:20:46;4.30;;;2.88;;
66425;SDS011;53237;46.158;14.604;2024-02-21T04:23:12;4.28;;;3.10;;
66425;SDS011;53237;46.158;14.604;2024-02-21T04:25:39;5.55;;;3.33;;
66425;SDS011;53237;46.158;14.604;2024-02-21T04:28:05;5.05;;;3.25;;
66425;SDS011;53237;46.158;14.604;2024-02-21T04:30:31;6.03;;;3.03;;
66425;SDS011;53237;46.158;14.604;2024-02-21T04:32:57;3.90;;;2.97;;
66425;SDS011;53237;46.158;14.604;2024-02-21T04:35:23;8.13;;;3.40;;
66425;SDS011;53237;46.158;14.604;2024-02-21T04:37:49;4.22;;;2.88;;
66425;SDS011;53237;46.158;14.604;2024-02-21T04:40:15;5.32;;;3.78;;
66425;SDS011;53237;46.158;14.604;2024-02-21T04:42:42;6.68;;;2.95;;
66425;SDS011;53237;46.158;14.604;2024-02-21T04:45:08;5.53;;;3.10;;
66425;SDS011;53237;46.158;14.604;2024-02-21T04:47:34;6.95;;;3.38;;
66425;SDS011;53237;46.158;14.604;2024-02-21T04:50:00;5.82;;;3.65;;
66425;SDS011;53237;46.158;14.604;2024-02-21T04:52:26;4.45;;;3.00;;
66425;SDS011;53237;46.158;14.604;2024-02-21T04:54:52;5.35;;;3.30;;
66425;SDS011;53237;46.158;14.604;2024-02-21T04:57:18;4.60;;;3.35;;
66425;SDS011;53237;46.158;14.604;2024-02-21T04:59:44;5.18;;;2.90;;
66425;SDS011;53237;46.158;14.604;2024-02-21T05:02:12;7.28;;;3.42;;
66425;SDS011;53237;46.158;14.604;2024-02-21T05:04:38;5.47;;;3.08;;
66425;SDS011;53237;46.158;14.604;2024-02-21T05:07:05;5.57;;;3.28;;
66425;SDS011;53237;46.158;14.604;2024-02-21T05:09:31;5.97;;;3.70;;
66425;SDS011;53237;46.158;14.604;2024-02-21T05:11:57;6.15;;;3.42;;
66425;SDS011;53237;46.158;14.604;2024-02-21T05:14:26;5.47;;;3.33;;
66425;SDS011;53237;46.158;14.604;2024-02-21T05:16:53;4.60;;;2.78;;
66425;SDS011;53237;46.158;14.604;2024-02-21T05:19:19;5.18;;;2.90;;
66425;SDS011;53237;46.158;14.604;2024-02-21T05:21:45;4.78;;;2.95;;
66425;SDS011;53237;46.158;14.604;2024-02-21T05:24:11;8.23;;;3.53;;
66425;SDS011;53237;46.158;14.604;2024-02-21T05:26:37;5.32;;;3.28;;
66425;SDS011;53237;46.158;14.604;2024-02-21T05:29:03;7.80;;;3.30;;
66425;SDS011;53237;46.158;14.604;2024-02-21T05:31:42;6.05;;;3.00;;
66425;SDS011;53237;46.158;14.604;2024-02-21T05:34:08;7.05;;;3.33;;
66425;SDS011;53237;46.158;14.604;2024-02-21T05:36:34;5.85;;;3.15;;
66425;SDS011;53237;46.158;14.604;2024-02-21T05:39:00;4.53;;;2.85;;
66425;SDS011;53237;46.158;14.604;2024-02-21T05:41:26;4.90;;;3.03;;
66425;SDS011;53237;46.158;14.604;2024-02-21T05:43:52;5.13;;;3.42;;
66425;SDS011;53237;46.158;14.604;2024-02-21T05:46:19;5.15;;;3.25;;
66425;SDS011;53237;46.158;14.604;2024-02-21T05:48:45;4.50;;;3.33;;
66425;SDS011;53237;46.158;14.604;2024-02-21T05:51:17;6.55;;;3.30;;
66425;SDS011;53237;46.158;14.604;2024-02-21T05:53:43;4.63;;;3.28;;
66425;SDS011;53237;46.158;14.604;2024-02-21T05:56:12;6.93;;;4.18;;
66425;SDS011;53237;46.158;14.604;2024-02-21T05:58:39;5.28;;;3.92;;
66425;SDS011;53237;46.158;14.604;2024-02-21T06:01:08;6.75;;;3.63;;
66425;SDS011;53237;46.158;14.604;2024-02-21T06:03:37;6.38;;;3.83;;
66425;SDS011;53237;46.158;14.604;2024-02-21T06:06:06;6.20;;;3.45;;
66425;SDS011;53237;46.158;14.604;2024-02-21T06:08:32;6.78;;;4.18;;
66425;SDS011;53237;46.158;14.604;2024-02-21T06:10:58;6.72;;;4.50;;
66425;SDS011;53237;46.158;14.604;2024-02-21T06:13:24;9.95;;;4.35;;
66425;SDS011;53237;46.158;14.604;2024-02-21T06:15:50;7.60;;;4.13;;
66425;SDS011;53237;46.158;14.604;2024-02-21T06:18:25;6.18;;;4.00;;
66425;SDS011;53237;46.158;14.604;2024-02-21T06:20:51;7.47;;;4.35;;
66425;SDS011;53237;46.158;14.604;2024-02-21T06:23:17;7.10;;;4.53;;
66425;SDS011;53237;46.158;14.604;2024-02-21T06:25:44;6.38;;;3.92;;
66425;SDS011;53237;46.158;14.604;2024-02-21T06:28:10;7.82;;;4.30;;
66425;SDS011;53237;46.158;14.604;2024-02-21T06:30:36;5.88;;;4.20;;
66425;SDS011;53237;46.158;14.604;2024-02-21T06:33:02;8.88;;;4.45;;
66425;SDS011;53237;46.158;14.604;2024-02-21T06:35:28;7.75;;;4.20;;
66425;SDS011;53237;46.158;14.604;2024-02-21T06:37:54;8.98;;;4.93;;
66425;SDS011;53237;46.158;14.604;2024-02-21T06:43:04;7.43;;;5.03;;
66425;SDS011;53237;46.158;14.604;2024-02-21T06:45:48;6.65;;;4.55;;
66425;SDS011;53237;46.158;14.604;2024-02-21T06:48:23;7.03;;;4.80;;
66425;SDS011;53237;46.158;14.604;2024-02-21T06:50:49;8.02;;;5.00;;
66425;SDS011;53237;46.158;14.604;2024-02-21T06:53:18;8.48;;;5.22;;
66425;SDS011;53237;46.158;14.604;2024-02-21T06:55:44;8.20;;;5.30;;
66425;SDS011;53237;46.158;14.604;2024-02-21T06:58:10;6.68;;;4.90;;
66425;SDS011;53237;46.158;14.604;2024-02-21T07:00:36;9.27;;;5.80;;
66425;SDS011;53237;46.158;14.604;2024-02-21T07:03:03;9.15;;;5.30;;
66425;SDS011;53237;46.158;14.604;2024-02-21T07:05:47;11.05;;;6.07;;
66425;SDS011;53237;46.158;14.604;2024-02-21T07:08:28;7.93;;;5.45;;
66425;SDS011;53237;46.158;14.604;2024-02-21T07:10:56;9.15;;;5.57;;
66425;SDS011;53237;46.158;14.604;2024-02-21T07:13:22;8.85;;;5.68;;
66425;SDS011;53237;46.158;14.604;2024-02-21T07:15:57;6.60;;;4.32;;
66425;SDS011;53237;46.158;14.604;2024-02-21T07:18:23;7.82;;;4.57;;
66425;SDS011;53237;46.158;14.604;2024-02-21T07:20:52;9.65;;;5.22;;
66425;SDS011;53237;46.158;14.604;2024-02-21T07:23:18;8.55;;;5.18;;
66425;SDS011;53237;46.158;14.604;2024-02-21T07:25:44;7.68;;;5.03;;
66425;SDS011;53237;46.158;14.604;2024-02-21T07:28:13;5.85;;;4.93;;
66425;SDS011;53237;46.158;14.604;2024-02-21T07:30:50;10.27;;;5.50;;
66425;SDS011;53237;46.158;14.604;2024-02-21T07:33:21;8.45;;;5.93;;
66425;SDS011;53237;46.158;14.604;2024-02-21T07:35:58;8.70;;;5.78;;
66425;SDS011;53237;46.158;14.604;2024-02-21T07:38:24;8.70;;;5.97;;
66425;SDS011;53237;46.158;14.604;2024-02-21T07:40:50;9.68;;;5.95;;
66425;SDS011;53237;46.158;14.604;2024-02-21T07:43:16;8.82;;;6.20;;
66425;SDS011;53237;46.158;14.604;2024-02-21T07:45:42;11.23;;;6.40;;
66425;SDS011;53237;46.158;14.604;2024-02-21T07:48:08;9.82;;;6.63;;
66425;SDS011;53237;46.158;14.604;2024-02-21T07:50:43;10.52;;;6.43;;
66425;SDS011;53237;46.158;14.604;2024-02-21T07:53:09;13.30;;;8.60;;
66425;SDS011;53237;46.158;14.604;2024-02-21T07:55:35;11.18;;;6.93;;
66425;SDS011;53237;46.158;14.604;2024-02-21T07:58:03;11.65;;;7.30;;
66425;SDS011;53237;46.158;14.604;2024-02-21T08:00:45;13.18;;;7.10;;
66425;SDS011;53237;46.158;14.604;2024-02-21T08:03:11;9.27;;;6.88;;
66425;SDS011;53237;46.158;14.604;2024-02-21T08:05:53;12.73;;;7.47;;
66425;SDS011;53237;46.158;14.604;2024-02-21T08:08:19;10.70;;;5.57;;
66425;SDS011;53237;46.158;14.604;2024-02-21T08:11:05;10.10;;;5.18;;
66425;SDS011;53237;46.158;14.604;2024-02-21T08:13:41;8.48;;;5.10;;
66425;SDS011;53237;46.158;14.604;2024-02-21T08:16:07;9.98;;;5.60;;
66425;SDS011;53237;46.158;14.604;2024-02-21T08:18:35;8.73;;;5.40;;
66425;SDS011;53237;46.158;14.604;2024-02-21T08:21:03;10.80;;;6.00;;
66425;SDS011;53237;46.158;14.604;2024-02-21T08:23:45;9.25;;;5.07;;
66425;SDS011;53237;46.158;14.604;2024-02-21T08:26:32;9.20;;;4.85;;
66425;SDS011;53237;46.158;14.604;2024-02-21T08:38:11;5.90;;;3.67;;
66425;SDS011;53237;46.158;14.604;2024-02-21T08:40:56;8.73;;;4.97;;
66425;SDS011;53237;46.158;14.604;2024-02-21T08:43:45;6.90;;;4.80;;
66425;SDS011;53237;46.158;14.604;2024-02-21T08:46:32;7.72;;;4.90;;
66425;SDS011;53237;46.158;14.604;2024-02-21T08:49:15;8.95;;;4.85;;
66425;SDS011;53237;46.158;14.604;2024-02-21T08:51:44;8.45;;;4.65;;
66425;SDS011;53237;46.158;14.604;2024-02-21T08:54:34;6.88;;;4.40;;
66425;SDS011;53237;46.158;14.604;2024-02-21T09:00:06;8.40;;;4.15;;
66425;SDS011;53237;46.158;14.604;2024-02-21T09:02:51;8.50;;;4.72;;
66425;SDS011;53237;46.158;14.604;2024-02-21T09:05:36;6.65;;;3.67;;
66425;SDS011;53237;46.158;14.604;2024-02-21T09:08:08;7.32;;;4.35;;
66425;SDS011;53237;46.158;14.604;2024-02-21T09:10:40;6.82;;;4.47;;
66425;SDS011;53237;46.158;14.604;2024-02-21T09:13:09;8.48;;;4.05;;
66425;SDS011;53237;46.158;14.604;2024-02-21T09:24:34;6.28;;;3.80;;
66425;SDS011;53237;46.158;14.604;2024-02-21T09:27:08;5.17;;;3.67;;
66425;SDS011;53237;46.158;14.604;2024-02-21T09:29:55;4.93;;;3.50;;
66425;SDS011;53237;46.158;14.604;2024-02-21T09:35:26;5.72;;;3.47;;
66425;SDS011;53237;46.158;14.604;2024-02-21T09:38:26;4.65;;;3.85;;
66425;SDS011;53237;46.158;14.604;2024-02-21T09:41:26;4.85;;;3.50;;
66425;SDS011;53237;46.158;14.604;2024-02-21T09:49:50;4.15;;;2.88;;
66425;SDS011;53237;46.158;14.604;2024-02-21T09:55:33;4.82;;;3.67;;
66425;SDS011;53237;46.158;14.604;2024-02-21T10:01:26;4.55;;;3.95;;
66425;SDS011;53237;46.158;14.604;2024-02-21T10:07:18;8.95;;;4.97;;
66425;SDS011;53237;46.158;14.604;2024-02-21T10:18:56;5.60;;;4.25;;
66425;SDS011;53237;46.158;14.604;2024-02-21T10:44:28;5.55;;;4.93;;
66425;SDS011;53237;46.158;14.604;2024-02-21T10:56:32;5.40;;;4.90;;
66425;SDS011;53237;46.158;14.604;2024-02-21T10:59:10;4.72;;;4.32;;
66425;SDS011;53237;46.158;14.604;2024-02-21T11:01:57;5.22;;;4.25;;
66425;SDS011;53237;46.158;14.604;2024-02-21T11:14:27;5.70;;;5.15;;
66425;SDS011;53237;46.158;14.604;2024-02-21T12:04:45;3.55;;;3.25;;
66425;SDS011;53237;46.158;14.604;2024-02-21T12:07:33;4.13;;;3.45;;
66425;SDS011;53237;46.158;14.604;2024-02-21T12:10:17;3.33;;;2.92;;
66425;SDS011;53237;46.158;14.604;2024-02-21T12:16:08;6.38;;;4.90;;
66425;SDS011;53237;46.158;14.604;2024-02-21T12:19:11;3.92;;;3.50;;
66425;SDS011;53237;46.158;14.604;2024-02-21T12:21:38;4.10;;;3.33;;
66425;SDS011;53237;46.158;14.604;2024-02-21T12:27:13;3.45;;;3.05;;
66425;SDS011;53237;46.158;14.604;2024-02-21T12:29:51;3.92;;;3.40;;
66425;SDS011;53237;46.158;14.604;2024-02-21T12:32:26;4.45;;;3.28;;
66425;SDS011;53237;46.158;14.604;2024-02-21T12:44:40;4.38;;;3.65;;
66425;SDS011;53237;46.158;14.604;2024-02-21T12:47:34;3.73;;;2.73;;
66425;SDS011;53237;46.158;14.604;2024-02-21T12:50:03;5.53;;;4.43;;
66425;SDS011;53237;46.158;14.604;2024-02-21T12:55:49;5.35;;;3.72;;
66425;SDS011;53237;46.158;14.604;2024-02-21T12:58:21;4.20;;;3.80;;
66425;SDS011;53237;46.158;14.604;2024-02-21T13:01:02;4.95;;;4.45;;
66425;SDS011;53237;46.158;14.604;2024-02-21T13:29:32;4.53;;;4.13;;
66425;SDS011;53237;46.158;14.604;2024-02-21T13:35:47;5.70;;;5.10;;
66425;SDS011;53237;46.158;14.604;2024-02-21T13:38:43;6.32;;;5.13;;
66425;SDS011;53237;46.158;14.604;2024-02-21T13:41:15;6.80;;;6.20;;
66425;SDS011;53237;46.158;14.604;2024-02-21T13:50:12;6.43;;;5.25;;
66425;SDS011;53237;46.158;14.604;2024-02-21T14:21:26;4.32;;;3.92;;
66425;SDS011;53237;46.158;14.604;2024-02-21T14:36:39;5.10;;;4.57;;
66425;SDS011;53237;46.158;14.604;2024-02-21T14:39:28;7.03;;;5.40;;
66425;SDS011;53237;46.158;14.604;2024-02-21T14:55:08;6.05;;;5.45;;
66425;SDS011;53237;46.158;14.604;2024-02-21T16:49:41;3.40;;;2.95;;
66425;SDS011;53237;46.158;14.604;2024-02-21T16:52:30;3.72;;;2.80;;
66425;SDS011;53237;46.158;14.604;2024-02-21T16:55:00;4.25;;;2.75;;
66425;SDS011;53237;46.158;14.604;2024-02-21T16:57:37;4.35;;;2.72;;
66425;SDS011;53237;46.158;14.604;2024-02-21T17:00:04;3.15;;;2.63;;
66425;SDS011;53237;46.158;14.604;2024-02-21T17:02:36;3.90;;;2.83;;
66425;SDS011;53237;46.158;14.604;2024-02-21T17:05:03;5.50;;;3.38;;
66425;SDS011;53237;46.158;14.604;2024-02-21T17:07:38;5.50;;;3.35;;
66425;SDS011;53237;46.158;14.604;2024-02-21T17:10:07;4.47;;;3.35;;
66425;SDS011;53237;46.158;14.604;2024-02-21T17:12:39;4.57;;;3.38;;
66425;SDS011;53237;46.158;14.604;2024-02-21T17:15:18;3.93;;;2.63;;
66425;SDS011;53237;46.158;14.604;2024-02-21T17:18:05;3.33;;;2.70;;
66425;SDS011;53237;46.158;14.604;2024-02-21T17:20:37;3.90;;;2.65;;
66425;SDS011;53237;46.158;14.604;2024-02-21T17:23:03;3.15;;;2.40;;
66425;SDS011;53237;46.158;14.604;2024-02-21T17:25:32;3.53;;;2.47;;
66425;SDS011;53237;46.158;14.604;2024-02-21T17:28:18;3.25;;;2.75;;
66425;SDS011;53237;46.158;14.604;2024-02-21T17:30:44;2.78;;;2.40;;
66425;SDS011;53237;46.158;14.604;2024-02-21T17:33:10;3.00;;;2.40;;
66425;SDS011;53237;46.158;14.604;2024-02-21T17:35:45;3.85;;;2.85;;
66425;SDS011;53237;46.158;14.604;2024-02-21T17:38:13;3.38;;;2.50;;
66425;SDS011;53237;46.158;14.604;2024-02-21T17:43:35;2.70;;;2.38;;
66425;SDS011;53237;46.158;14.604;2024-02-21T17:46:01;3.80;;;2.70;;
66425;SDS011;53237;46.158;14.604;2024-02-21T17:48:28;3.60;;;2.70;;
66425;SDS011;53237;46.158;14.604;2024-02-21T17:50:57;6.18;;;4.22;;
66425;SDS011;53237;46.158;14.604;2024-02-21T17:53:32;5.15;;;3.15;;
66425;SDS011;53237;46.158;14.604;2024-02-21T17:55:58;3.30;;;2.55;;
66425;SDS011;53237;46.158;14.604;2024-02-21T17:58:24;3.65;;;2.65;;
66425;SDS011;53237;46.158;14.604;2024-02-21T18:00:50;4.82;;;3.88;;
66425;SDS011;53237;46.158;14.604;2024-02-21T18:03:18;5.22;;;3.65;;
66425;SDS011;53237;46.158;14.604;2024-02-21T18:05:45;5.55;;;4.05;;
66425;SDS011;53237;46.158;14.604;2024-02-21T18:11:10;4.80;;;3.70;;
66425;SDS011;53237;46.158;14.604;2024-02-21T18:13:54;6.53;;;4.65;;
66425;SDS011;53237;46.158;14.604;2024-02-21T18:16:22;5.53;;;3.72;;
66425;SDS011;53237;46.158;14.604;2024-02-21T18:22:20;4.57;;;4.05;;
66425;SDS011;53237;46.158;14.604;2024-02-21T18:31:16;5.82;;;4.65;;
66425;SDS011;53237;46.158;14.604;2024-02-21T18:34:01;6.80;;;4.55;;
66425;SDS011;53237;46.158;14.604;2024-02-21T18:36:28;6.53;;;5.45;;
66425;SDS011;53237;46.158;14.604;2024-02-21T18:38:54;5.90;;;4.72;;
66425;SDS011;53237;46.158;14.604;2024-02-21T18:41:20;6.70;;;4.35;;
66425;SDS011;53237;46.158;14.604;2024-02-21T18:43:47;6.38;;;4.82;;
66425;SDS011;53237;46.158;14.604;2024-02-21T18:46:13;7.60;;;4.80;;
66425;SDS011;53237;46.158;14.604;2024-02-21T18:48:40;6.13;;;5.05;;
66425;SDS011;53237;46.158;14.604;2024-02-21T18:51:12;5.53;;;4.82;;
66425;SDS011;53237;46.158;14.604;2024-02-21T18:53:39;7.40;;;5.22;;
66425;SDS011;53237;46.158;14.604;2024-02-21T18:58:56;6.10;;;4.72;;
66425;SDS011;53237;46.158;14.604;2024-02-21T19:01:23;5.22;;;4.50;;
66425;SDS011;53237;46.158;14.604;2024-02-21T19:03:49;5.57;;;4.68;;
66425;SDS011;53237;46.158;14.604;2024-02-21T19:06:15;6.30;;;4.38;;
66425;SDS011;53237;46.158;14.604;2024-02-21T19:08:41;5.93;;;4.40;;
66425;SDS011;53237;46.158;14.604;2024-02-21T19:11:08;5.00;;;4.38;;
66425;SDS011;53237;46.158;14.604;2024-02-21T19:13:34;6.65;;;4.88;;
66425;SDS011;53237;46.158;14.604;2024-02-21T19:16:01;6.45;;;4.80;;
66425;SDS011;53237;46.158;14.604;2024-02-21T19:18:27;5.18;;;4.55;;
66425;SDS011;53237;46.158;14.604;2024-02-21T19:20:53;6.03;;;4.28;;
66425;SDS011;53237;46.158;14.604;2024-02-21T19:23:19;6.45;;;4.60;;
66425;SDS011;53237;46.158;14.604;2024-02-21T19:25:45;7.38;;;4.82;;
66425;SDS011;53237;46.158;14.604;2024-02-21T19:28:11;6.78;;;4.80;;
66425;SDS011;53237;46.158;14.604;2024-02-21T19:30:40;7.65;;;5.30;;
66425;SDS011;53237;46.158;14.604;2024-02-21T19:33:07;7.10;;;4.65;;
66425;SDS011;53237;46.158;14.604;2024-02-21T19:35:35;8.55;;;5.70;;
66425;SDS011;53237;46.158;14.604;2024-02-21T19:38:01;6.95;;;4.85;;
66425;SDS011;53237;46.158;14.604;2024-02-21T19:40:28;7.57;;;4.80;;
66425;SDS011;53237;46.158;14.604;2024-02-21T19:43:01;7.82;;;5.10;;
66425;SDS011;53237;46.158;14.604;2024-02-21T19:48:01;9.27;;;4.87;;
66425;SDS011;53237;46.158;14.604;2024-02-21T19:50:27;6.93;;;4.68;;
66425;SDS011;53237;46.158;14.604;2024-02-21T19:52:57;7.78;;;5.30;;
66425;SDS011;53237;46.158;14.604;2024-02-21T19:55:24;7.32;;;5.10;;
66425;SDS011;53237;46.158;14.604;2024-02-21T19:57:50;5.90;;;4.72;;
66425;SDS011;53237;46.158;14.604;2024-02-21T20:00:16;8.00;;;5.07;;
66425;SDS011;53237;46.158;14.604;2024-02-21T20:02:44;6.35;;;4.95;;
66425;SDS011;53237;46.158;14.604;2024-02-21T20:05:10;7.57;;;5.20;;
66425;SDS011;53237;46.158;14.604;2024-02-21T20:07:37;6.97;;;4.75;;
66425;SDS011;53237;46.158;14.604;2024-02-21T20:10:06;8.13;;;4.80;;
66425;SDS011;53237;46.158;14.604;2024-02-21T20:12:34;7.00;;;4.80;;
66425;SDS011;53237;46.158;14.604;2024-02-21T20:15:01;6.68;;;4.68;;
66425;SDS011;53237;46.158;14.604;2024-02-21T20:17:30;7.63;;;4.72;;
66425;SDS011;53237;46.158;14.604;2024-02-21T20:19:56;8.20;;;4.88;;
66425;SDS011;53237;46.158;14.604;2024-02-21T20:22:23;6.03;;;4.65;;
66425;SDS011;53237;46.158;14.604;2024-02-21T20:24:49;7.80;;;5.10;;
66425;SDS011;53237;46.158;14.604;2024-02-21T20:27:15;7.93;;;5.63;;
66425;SDS011;53237;46.158;14.604;2024-02-21T20:29:41;7.88;;;5.13;;
66425;SDS011;53237;46.158;14.604;2024-02-21T20:32:07;6.20;;;4.72;;
66425;SDS011;53237;46.158;14.604;2024-02-21T20:34:33;7.82;;;5.30;;
66425;SDS011;53237;46.158;14.604;2024-02-21T20:36:59;10.13;;;5.68;;
66425;SDS011;53237;46.158;14.604;2024-02-21T20:39:25;8.05;;;5.43;;
66425;SDS011;53237;46.158;14.604;2024-02-21T20:41:55;8.18;;;5.03;;
66425;SDS011;53237;46.158;14.604;2024-02-21T20:44:21;8.95;;;5.20;;
66425;SDS011;53237;46.158;14.604;2024-02-21T20:46:49;9.57;;;5.65;;
66425;SDS011;53237;46.158;14.604;2024-02-21T20:49:16;7.00;;;5.03;;
66425;SDS011;53237;46.158;14.604;2024-02-21T20:51:42;7.35;;;5.05;;
66425;SDS011;53237;46.158;14.604;2024-02-21T20:54:08;7.50;;;4.75;;
66425;SDS011;53237;46.158;14.604;2024-02-21T20:56:35;10.13;;;6.03;;
66425;SDS011;53237;46.158;14.604;2024-02-21T20:59:04;9.63;;;5.93;;
66425;SDS011;53237;46.158;14.604;2024-02-21T21:01:33;10.57;;;6.40;;
66425;SDS011;53237;46.158;14.604;2024-02-21T21:03:59;10.45;;;6.63;;
66425;SDS011;53237;46.158;14.604;2024-02-21T21:06:25;12.43;;;7.18;;
66425;SDS011;53237;46.158;14.604;2024-02-21T21:08:51;12.13;;;7.05;;
66425;SDS011;53237;46.158;14.604;2024-02-21T21:11:17;13.02;;;6.75;;